Terminal Aerodrome Forecast
Issued by NWS

Home | Current Version | Previous Version | Text Only | Print | Product List | Glossary On
Versions: 1 2 3 4 5 6 7 8 9 10 11 12 13 14 15 16 17 18 19
000
FTUS46 KSEW 301100 RRA
TAFCLM
TAF
KCLM 301151Z 3012/0112 25008KT P6SM VCSH SCT022 SCT050
      TEMPO 3012/3016 -SHRA BKN022 BKN050
     FM301800 31012KT P6SM VCSH SCT035 SCT050
     FM010100 28007KT P6SM SKC
     FM010900 25005KT P6SM VCFG FEW020=

USA.gov is the U.S. government's official web portal to all federal, state and local government web resources and services.